sensor_id;sensor_type;location;lat;lon;timestamp;P1;durP1;ratioP1;P2;durP2;ratioP2
74523;SDS011;63074;44.696;10.358;2023-08-21T00:00:25;9.23;;;6.88;;
74523;SDS011;63074;44.696;10.358;2023-08-21T00:02:51;8.60;;;6.82;;
74523;SDS011;63074;44.696;10.358;2023-08-21T00:05:18;9.23;;;6.78;;
74523;SDS011;63074;44.696;10.358;2023-08-21T00:07:44;8.10;;;6.47;;
74523;SDS011;63074;44.696;10.358;2023-08-21T00:10:11;9.38;;;6.10;;
74523;SDS011;63074;44.696;10.358;2023-08-21T00:12:39;7.50;;;6.68;;
74523;SDS011;63074;44.696;10.358;2023-08-21T00:15:05;7.72;;;6.45;;
74523;SDS011;63074;44.696;10.358;2023-08-21T00:17:32;8.48;;;6.40;;
74523;SDS011;63074;44.696;10.358;2023-08-21T00:19:58;8.55;;;6.85;;
74523;SDS011;63074;44.696;10.358;2023-08-21T00:22:24;8.07;;;6.53;;
74523;SDS011;63074;44.696;10.358;2023-08-21T00:24:50;8.18;;;6.38;;
74523;SDS011;63074;44.696;10.358;2023-08-21T00:27:16;8.07;;;6.82;;
74523;SDS011;63074;44.696;10.358;2023-08-21T00:29:43;10.80;;;6.85;;
74523;SDS011;63074;44.696;10.358;2023-08-21T00:32:09;8.90;;;5.95;;
74523;SDS011;63074;44.696;10.358;2023-08-21T00:34:37;8.95;;;6.53;;
74523;SDS011;63074;44.696;10.358;2023-08-21T00:37:03;7.65;;;6.78;;
74523;SDS011;63074;44.696;10.358;2023-08-21T00:39:30;7.85;;;6.53;;
74523;SDS011;63074;44.696;10.358;2023-08-21T00:41:56;7.78;;;6.63;;
74523;SDS011;63074;44.696;10.358;2023-08-21T00:44:22;9.57;;;6.70;;
74523;SDS011;63074;44.696;10.358;2023-08-21T00:46:48;8.45;;;6.80;;
74523;SDS011;63074;44.696;10.358;2023-08-21T00:49:14;7.60;;;6.63;;
74523;SDS011;63074;44.696;10.358;2023-08-21T00:51:41;10.10;;;6.78;;
74523;SDS011;63074;44.696;10.358;2023-08-21T00:54:07;8.77;;;6.57;;
74523;SDS011;63074;44.696;10.358;2023-08-21T00:56:34;8.10;;;6.88;;
74523;SDS011;63074;44.696;10.358;2023-08-21T00:59:01;8.80;;;7.43;;
74523;SDS011;63074;44.696;10.358;2023-08-21T01:01:27;8.55;;;6.53;;
74523;SDS011;63074;44.696;10.358;2023-08-21T01:03:54;6.60;;;5.75;;
74523;SDS011;63074;44.696;10.358;2023-08-21T01:06:21;8.43;;;7.10;;
74523;SDS011;63074;44.696;10.358;2023-08-21T01:08:57;8.90;;;6.50;;
74523;SDS011;63074;44.696;10.358;2023-08-21T01:12:19;8.00;;;6.53;;
74523;SDS011;63074;44.696;10.358;2023-08-21T01:14:51;9.80;;;6.75;;
74523;SDS011;63074;44.696;10.358;2023-08-21T01:17:21;8.40;;;6.78;;
74523;SDS011;63074;44.696;10.358;2023-08-21T01:19:50;15.18;;;6.70;;
74523;SDS011;63074;44.696;10.358;2023-08-21T01:22:18;8.73;;;7.10;;
74523;SDS011;63074;44.696;10.358;2023-08-21T01:24:44;7.88;;;6.93;;
74523;SDS011;63074;44.696;10.358;2023-08-21T01:27:10;7.63;;;6.10;;
74523;SDS011;63074;44.696;10.358;2023-08-21T01:29:39;10.05;;;6.95;;
74523;SDS011;63074;44.696;10.358;2023-08-21T01:34:31;9.77;;;6.95;;
74523;SDS011;63074;44.696;10.358;2023-08-21T01:36:59;9.13;;;6.65;;
74523;SDS011;63074;44.696;10.358;2023-08-21T01:39:26;10.27;;;6.90;;
74523;SDS011;63074;44.696;10.358;2023-08-21T01:41:53;8.02;;;6.88;;
74523;SDS011;63074;44.696;10.358;2023-08-21T01:44:21;9.88;;;6.65;;
74523;SDS011;63074;44.696;10.358;2023-08-21T01:46:47;10.25;;;6.70;;
74523;SDS011;63074;44.696;10.358;2023-08-21T01:49:13;8.35;;;6.80;;
74523;SDS011;63074;44.696;10.358;2023-08-21T01:51:39;9.95;;;6.50;;
74523;SDS011;63074;44.696;10.358;2023-08-21T01:54:05;10.13;;;7.05;;
74523;SDS011;63074;44.696;10.358;2023-08-21T01:56:32;7.85;;;6.88;;
74523;SDS011;63074;44.696;10.358;2023-08-21T01:58:58;8.13;;;6.60;;
74523;SDS011;63074;44.696;10.358;2023-08-21T02:01:24;7.65;;;6.30;;
74523;SDS011;63074;44.696;10.358;2023-08-21T02:03:50;7.93;;;6.40;;
74523;SDS011;63074;44.696;10.358;2023-08-21T02:06:16;8.52;;;6.40;;
74523;SDS011;63074;44.696;10.358;2023-08-21T02:08:42;6.95;;;6.25;;
74523;SDS011;63074;44.696;10.358;2023-08-21T02:11:09;8.43;;;6.47;;
74523;SDS011;63074;44.696;10.358;2023-08-21T02:13:35;7.45;;;5.95;;
74523;SDS011;63074;44.696;10.358;2023-08-21T02:16:01;9.15;;;6.72;;
74523;SDS011;63074;44.696;10.358;2023-08-21T02:18:27;6.78;;;6.00;;
74523;SDS011;63074;44.696;10.358;2023-08-21T02:20:54;7.75;;;6.38;;
74523;SDS011;63074;44.696;10.358;2023-08-21T02:23:20;8.38;;;6.60;;
74523;SDS011;63074;44.696;10.358;2023-08-21T02:25:46;10.02;;;6.93;;
74523;SDS011;63074;44.696;10.358;2023-08-21T02:28:14;9.68;;;6.03;;
74523;SDS011;63074;44.696;10.358;2023-08-21T02:30:40;6.82;;;5.63;;
74523;SDS011;63074;44.696;10.358;2023-08-21T02:33:07;11.70;;;6.43;;
74523;SDS011;63074;44.696;10.358;2023-08-21T02:35:33;8.68;;;6.03;;
74523;SDS011;63074;44.696;10.358;2023-08-21T02:38:00;9.13;;;6.53;;
74523;SDS011;63074;44.696;10.358;2023-08-21T02:40:27;8.63;;;7.30;;
74523;SDS011;63074;44.696;10.358;2023-08-21T02:42:53;8.75;;;6.50;;
74523;SDS011;63074;44.696;10.358;2023-08-21T02:45:19;8.50;;;7.07;;
74523;SDS011;63074;44.696;10.358;2023-08-21T02:47:45;9.38;;;6.85;;
74523;SDS011;63074;44.696;10.358;2023-08-21T02:50:12;9.30;;;7.35;;
74523;SDS011;63074;44.696;10.358;2023-08-21T02:52:38;10.23;;;7.63;;
74523;SDS011;63074;44.696;10.358;2023-08-21T02:55:04;10.57;;;7.13;;
74523;SDS011;63074;44.696;10.358;2023-08-21T02:57:31;8.20;;;7.05;;
74523;SDS011;63074;44.696;10.358;2023-08-21T02:59:57;10.05;;;6.65;;
74523;SDS011;63074;44.696;10.358;2023-08-21T03:02:23;9.88;;;7.35;;
74523;SDS011;63074;44.696;10.358;2023-08-21T03:04:50;11.13;;;7.00;;
74523;SDS011;63074;44.696;10.358;2023-08-21T03:07:16;9.23;;;8.15;;
74523;SDS011;63074;44.696;10.358;2023-08-21T03:09:44;10.65;;;7.70;;
74523;SDS011;63074;44.696;10.358;2023-08-21T03:12:14;9.20;;;7.35;;
74523;SDS011;63074;44.696;10.358;2023-08-21T03:14:40;8.23;;;7.07;;
74523;SDS011;63074;44.696;10.358;2023-08-21T03:17:06;11.07;;;7.15;;
74523;SDS011;63074;44.696;10.358;2023-08-21T03:19:33;9.55;;;7.30;;
74523;SDS011;63074;44.696;10.358;2023-08-21T03:21:59;8.88;;;7.38;;
74523;SDS011;63074;44.696;10.358;2023-08-21T03:24:25;8.90;;;7.10;;
74523;SDS011;63074;44.696;10.358;2023-08-21T03:26:51;8.82;;;7.32;;
74523;SDS011;63074;44.696;10.358;2023-08-21T03:29:18;10.10;;;7.55;;
74523;SDS011;63074;44.696;10.358;2023-08-21T03:31:46;9.48;;;7.10;;
74523;SDS011;63074;44.696;10.358;2023-08-21T03:34:17;9.48;;;7.47;;
74523;SDS011;63074;44.696;10.358;2023-08-21T03:36:43;8.65;;;7.03;;
74523;SDS011;63074;44.696;10.358;2023-08-21T03:39:10;9.95;;;7.85;;
74523;SDS011;63074;44.696;10.358;2023-08-21T03:41:36;9.63;;;8.02;;
74523;SDS011;63074;44.696;10.358;2023-08-21T03:44:02;8.52;;;7.40;;
74523;SDS011;63074;44.696;10.358;2023-08-21T03:46:28;8.18;;;6.65;;
74523;SDS011;63074;44.696;10.358;2023-08-21T03:48:55;9.40;;;8.43;;
74523;SDS011;63074;44.696;10.358;2023-08-21T03:51:21;9.50;;;8.02;;
74523;SDS011;63074;44.696;10.358;2023-08-21T03:53:48;8.57;;;7.25;;
74523;SDS011;63074;44.696;10.358;2023-08-21T03:56:15;10.63;;;7.95;;
74523;SDS011;63074;44.696;10.358;2023-08-21T03:58:41;9.02;;;7.20;;
74523;SDS011;63074;44.696;10.358;2023-08-21T04:01:07;9.02;;;7.70;;
74523;SDS011;63074;44.696;10.358;2023-08-21T04:03:34;8.90;;;7.40;;
74523;SDS011;63074;44.696;10.358;2023-08-21T04:06:00;9.23;;;7.75;;
74523;SDS011;63074;44.696;10.358;2023-08-21T04:08:27;9.68;;;7.53;;
74523;SDS011;63074;44.696;10.358;2023-08-21T04:10:53;9.90;;;8.15;;
74523;SDS011;63074;44.696;10.358;2023-08-21T04:13:24;9.15;;;8.07;;
74523;SDS011;63074;44.696;10.358;2023-08-21T04:15:50;10.10;;;7.68;;
74523;SDS011;63074;44.696;10.358;2023-08-21T04:18:18;9.38;;;8.38;;
74523;SDS011;63074;44.696;10.358;2023-08-21T04:20:44;14.05;;;9.25;;
74523;SDS011;63074;44.696;10.358;2023-08-21T04:23:12;11.23;;;7.97;;
74523;SDS011;63074;44.696;10.358;2023-08-21T04:25:39;9.18;;;7.60;;
74523;SDS011;63074;44.696;10.358;2023-08-21T04:28:05;12.38;;;7.70;;
74523;SDS011;63074;44.696;10.358;2023-08-21T04:30:32;9.55;;;7.65;;
74523;SDS011;63074;44.696;10.358;2023-08-21T04:32:59;15.18;;;8.68;;
74523;SDS011;63074;44.696;10.358;2023-08-21T04:35:25;10.20;;;8.23;;
74523;SDS011;63074;44.696;10.358;2023-08-21T04:37:52;12.38;;;8.00;;
74523;SDS011;63074;44.696;10.358;2023-08-21T04:40:18;11.52;;;8.43;;
74523;SDS011;63074;44.696;10.358;2023-08-21T04:42:46;9.50;;;7.95;;
74523;SDS011;63074;44.696;10.358;2023-08-21T04:45:12;10.07;;;8.00;;
74523;SDS011;63074;44.696;10.358;2023-08-21T04:47:39;12.40;;;8.77;;
74523;SDS011;63074;44.696;10.358;2023-08-21T04:50:05;10.73;;;8.50;;
74523;SDS011;63074;44.696;10.358;2023-08-21T04:52:31;10.88;;;8.45;;
74523;SDS011;63074;44.696;10.358;2023-08-21T04:54:57;13.82;;;8.95;;
74523;SDS011;63074;44.696;10.358;2023-08-21T04:57:24;12.20;;;9.15;;
74523;SDS011;63074;44.696;10.358;2023-08-21T04:59:50;14.73;;;9.02;;
74523;SDS011;63074;44.696;10.358;2023-08-21T05:02:16;10.45;;;8.93;;
74523;SDS011;63074;44.696;10.358;2023-08-21T05:04:42;12.10;;;8.20;;
74523;SDS011;63074;44.696;10.358;2023-08-21T05:07:08;11.73;;;8.27;;
74523;SDS011;63074;44.696;10.358;2023-08-21T05:09:35;12.23;;;8.88;;
74523;SDS011;63074;44.696;10.358;2023-08-21T05:12:02;10.07;;;8.65;;
74523;SDS011;63074;44.696;10.358;2023-08-21T05:14:28;10.38;;;8.77;;
74523;SDS011;63074;44.696;10.358;2023-08-21T05:16:55;9.43;;;8.35;;
74523;SDS011;63074;44.696;10.358;2023-08-21T05:19:21;12.20;;;9.45;;
74523;SDS011;63074;44.696;10.358;2023-08-21T05:21:47;12.38;;;8.50;;
74523;SDS011;63074;44.696;10.358;2023-08-21T05:24:13;10.32;;;8.18;;
74523;SDS011;63074;44.696;10.358;2023-08-21T05:26:39;12.70;;;8.50;;
74523;SDS011;63074;44.696;10.358;2023-08-21T05:29:06;10.50;;;7.90;;
74523;SDS011;63074;44.696;10.358;2023-08-21T05:31:32;15.43;;;8.82;;
74523;SDS011;63074;44.696;10.358;2023-08-21T05:33:58;10.90;;;7.85;;
74523;SDS011;63074;44.696;10.358;2023-08-21T05:36:25;12.98;;;9.15;;
74523;SDS011;63074;44.696;10.358;2023-08-21T05:38:51;12.25;;;9.00;;
74523;SDS011;63074;44.696;10.358;2023-08-21T05:41:17;11.52;;;8.73;;
74523;SDS011;63074;44.696;10.358;2023-08-21T05:43:44;11.95;;;9.30;;
74523;SDS011;63074;44.696;10.358;2023-08-21T05:46:10;12.02;;;8.65;;
74523;SDS011;63074;44.696;10.358;2023-08-21T05:48:36;12.35;;;9.32;;
74523;SDS011;63074;44.696;10.358;2023-08-21T05:51:03;12.13;;;9.30;;
74523;SDS011;63074;44.696;10.358;2023-08-21T05:53:30;14.95;;;8.55;;
74523;SDS011;63074;44.696;10.358;2023-08-21T05:55:56;13.65;;;10.27;;
74523;SDS011;63074;44.696;10.358;2023-08-21T05:58:23;16.00;;;9.80;;
74523;SDS011;63074;44.696;10.358;2023-08-21T06:00:49;13.02;;;9.32;;
74523;SDS011;63074;44.696;10.358;2023-08-21T06:03:15;14.85;;;9.50;;
74523;SDS011;63074;44.696;10.358;2023-08-21T06:05:41;15.43;;;10.02;;
74523;SDS011;63074;44.696;10.358;2023-08-21T06:08:08;12.95;;;9.90;;
74523;SDS011;63074;44.696;10.358;2023-08-21T06:10:35;12.90;;;9.27;;
74523;SDS011;63074;44.696;10.358;2023-08-21T06:13:01;13.45;;;9.50;;
74523;SDS011;63074;44.696;10.358;2023-08-21T06:15:27;13.27;;;10.38;;
74523;SDS011;63074;44.696;10.358;2023-08-21T06:17:53;12.98;;;9.98;;
74523;SDS011;63074;44.696;10.358;2023-08-21T06:20:20;14.65;;;9.70;;
74523;SDS011;63074;44.696;10.358;2023-08-21T06:22:46;13.75;;;10.43;;
74523;SDS011;63074;44.696;10.358;2023-08-21T06:25:12;11.32;;;9.57;;
74523;SDS011;63074;44.696;10.358;2023-08-21T06:27:38;13.98;;;10.07;;
74523;SDS011;63074;44.696;10.358;2023-08-21T06:30:05;11.02;;;8.45;;
74523;SDS011;63074;44.696;10.358;2023-08-21T06:32:32;10.70;;;8.75;;
74523;SDS011;63074;44.696;10.358;2023-08-21T06:34:58;12.55;;;9.27;;
74523;SDS011;63074;44.696;10.358;2023-08-21T06:37:24;12.00;;;9.40;;
74523;SDS011;63074;44.696;10.358;2023-08-21T06:39:50;11.85;;;10.00;;
74523;SDS011;63074;44.696;10.358;2023-08-21T06:42:17;15.27;;;9.77;;
74523;SDS011;63074;44.696;10.358;2023-08-21T06:44:43;12.80;;;10.27;;
74523;SDS011;63074;44.696;10.358;2023-08-21T06:47:09;14.73;;;10.20;;
74523;SDS011;63074;44.696;10.358;2023-08-21T06:49:35;12.60;;;9.75;;
74523;SDS011;63074;44.696;10.358;2023-08-21T06:52:02;12.60;;;9.68;;
74523;SDS011;63074;44.696;10.358;2023-08-21T06:54:28;11.95;;;9.13;;
74523;SDS011;63074;44.696;10.358;2023-08-21T06:56:55;11.48;;;9.40;;
74523;SDS011;63074;44.696;10.358;2023-08-21T06:59:21;12.30;;;9.20;;
74523;SDS011;63074;44.696;10.358;2023-08-21T07:01:47;12.23;;;8.63;;
74523;SDS011;63074;44.696;10.358;2023-08-21T07:04:13;12.43;;;10.48;;
74523;SDS011;63074;44.696;10.358;2023-08-21T07:06:39;13.98;;;9.95;;
74523;SDS011;63074;44.696;10.358;2023-08-21T07:09:05;13.23;;;9.85;;
74523;SDS011;63074;44.696;10.358;2023-08-21T07:11:32;12.13;;;9.10;;
74523;SDS011;63074;44.696;10.358;2023-08-21T07:13:58;11.02;;;8.60;;
74523;SDS011;63074;44.696;10.358;2023-08-21T07:16:24;9.82;;;8.63;;
74523;SDS011;63074;44.696;10.358;2023-08-21T07:21:19;11.57;;;8.25;;
74523;SDS011;63074;44.696;10.358;2023-08-21T07:23:45;11.02;;;9.13;;
74523;SDS011;63074;44.696;10.358;2023-08-21T07:26:11;11.48;;;8.30;;
74523;SDS011;63074;44.696;10.358;2023-08-21T07:28:37;9.65;;;8.65;;
74523;SDS011;63074;44.696;10.358;2023-08-21T07:31:04;12.85;;;9.35;;
74523;SDS011;63074;44.696;10.358;2023-08-21T07:33:30;12.80;;;9.02;;
74523;SDS011;63074;44.696;10.358;2023-08-21T07:36:00;10.68;;;8.40;;
74523;SDS011;63074;44.696;10.358;2023-08-21T07:38:28;10.68;;;9.07;;
74523;SDS011;63074;44.696;10.358;2023-08-21T07:41:07;9.88;;;8.07;;
74523;SDS011;63074;44.696;10.358;2023-08-21T07:43:35;10.43;;;9.10;;
74523;SDS011;63074;44.696;10.358;2023-08-21T07:46:03;10.43;;;8.80;;
74523;SDS011;63074;44.696;10.358;2023-08-21T07:48:30;10.75;;;9.10;;
74523;SDS011;63074;44.696;10.358;2023-08-21T07:50:56;12.75;;;9.30;;
74523;SDS011;63074;44.696;10.358;2023-08-21T07:53:23;12.57;;;9.32;;
74523;SDS011;63074;44.696;10.358;2023-08-21T07:55:50;14.57;;;9.27;;
74523;SDS011;63074;44.696;10.358;2023-08-21T07:58:18;10.48;;;8.73;;
74523;SDS011;63074;44.696;10.358;2023-08-21T08:00:44;10.10;;;8.38;;
74523;SDS011;63074;44.696;10.358;2023-08-21T08:03:11;9.77;;;8.52;;
74523;SDS011;63074;44.696;10.358;2023-08-21T08:05:39;9.40;;;7.82;;
74523;SDS011;63074;44.696;10.358;2023-08-21T08:08:06;9.35;;;8.30;;
74523;SDS011;63074;44.696;10.358;2023-08-21T08:10:33;13.10;;;8.50;;
74523;SDS011;63074;44.696;10.358;2023-08-21T08:13:03;12.30;;;8.18;;
74523;SDS011;63074;44.696;10.358;2023-08-21T08:15:30;11.48;;;7.47;;
74523;SDS011;63074;44.696;10.358;2023-08-21T08:17:59;8.90;;;7.80;;
74523;SDS011;63074;44.696;10.358;2023-08-21T08:20:25;10.18;;;8.18;;
74523;SDS011;63074;44.696;10.358;2023-08-21T08:22:51;11.75;;;8.70;;
74523;SDS011;63074;44.696;10.358;2023-08-21T08:25:17;10.43;;;7.95;;
74523;SDS011;63074;44.696;10.358;2023-08-21T08:27:44;9.93;;;8.80;;
74523;SDS011;63074;44.696;10.358;2023-08-21T08:30:10;9.02;;;7.82;;
74523;SDS011;63074;44.696;10.358;2023-08-21T08:32:37;24.17;;;9.70;;
74523;SDS011;63074;44.696;10.358;2023-08-21T08:35:05;11.07;;;8.40;;
74523;SDS011;63074;44.696;10.358;2023-08-21T08:37:32;9.20;;;8.07;;
74523;SDS011;63074;44.696;10.358;2023-08-21T08:39:58;14.45;;;8.63;;
74523;SDS011;63074;44.696;10.358;2023-08-21T08:42:24;10.35;;;7.35;;
74523;SDS011;63074;44.696;10.358;2023-08-21T08:44:51;10.40;;;8.13;;
74523;SDS011;63074;44.696;10.358;2023-08-21T08:47:21;8.98;;;7.38;;
74523;SDS011;63074;44.696;10.358;2023-08-21T08:49:49;9.90;;;8.27;;
74523;SDS011;63074;44.696;10.358;2023-08-21T08:52:18;10.07;;;8.10;;
74523;SDS011;63074;44.696;10.358;2023-08-21T08:54:45;8.82;;;7.68;;
74523;SDS011;63074;44.696;10.358;2023-08-21T08:57:12;10.15;;;7.57;;
74523;SDS011;63074;44.696;10.358;2023-08-21T08:59:38;9.02;;;7.85;;
74523;SDS011;63074;44.696;10.358;2023-08-21T09:02:04;9.10;;;6.75;;
74523;SDS011;63074;44.696;10.358;2023-08-21T09:04:31;9.10;;;8.20;;
74523;SDS011;63074;44.696;10.358;2023-08-21T09:07:09;9.82;;;8.82;;
74523;SDS011;63074;44.696;10.358;2023-08-21T09:09:39;10.43;;;7.88;;
74523;SDS011;63074;44.696;10.358;2023-08-21T09:12:10;8.30;;;6.97;;
74523;SDS011;63074;44.696;10.358;2023-08-21T09:14:38;9.38;;;8.25;;
74523;SDS011;63074;44.696;10.358;2023-08-21T09:17:06;9.90;;;8.10;;
74523;SDS011;63074;44.696;10.358;2023-08-21T09:19:32;10.23;;;8.20;;
74523;SDS011;63074;44.696;10.358;2023-08-21T09:22:01;9.10;;;8.20;;
74523;SDS011;63074;44.696;10.358;2023-08-21T09:24:34;8.57;;;7.68;;
74523;SDS011;63074;44.696;10.358;2023-08-21T09:27:01;11.98;;;7.70;;
74523;SDS011;63074;44.696;10.358;2023-08-21T09:29:37;8.93;;;7.75;;
74523;SDS011;63074;44.696;10.358;2023-08-21T09:32:05;9.13;;;8.18;;
74523;SDS011;63074;44.696;10.358;2023-08-21T09:34:35;8.07;;;7.07;;
74523;SDS011;63074;44.696;10.358;2023-08-21T09:37:06;9.75;;;8.38;;
74523;SDS011;63074;44.696;10.358;2023-08-21T09:39:35;8.27;;;6.55;;
74523;SDS011;63074;44.696;10.358;2023-08-21T09:42:04;8.85;;;7.43;;
74523;SDS011;63074;44.696;10.358;2023-08-21T09:44:34;8.63;;;7.45;;
74523;SDS011;63074;44.696;10.358;2023-08-21T09:47:02;9.52;;;7.30;;
74523;SDS011;63074;44.696;10.358;2023-08-21T09:49:29;8.98;;;8.07;;
74523;SDS011;63074;44.696;10.358;2023-08-21T09:51:57;9.45;;;7.45;;
74523;SDS011;63074;44.696;10.358;2023-08-21T09:54:24;9.13;;;7.30;;
74523;SDS011;63074;44.696;10.358;2023-08-21T09:56:50;9.60;;;7.00;;
74523;SDS011;63074;44.696;10.358;2023-08-21T09:59:17;8.50;;;7.68;;
74523;SDS011;63074;44.696;10.358;2023-08-21T10:01:43;8.55;;;7.32;;
74523;SDS011;63074;44.696;10.358;2023-08-21T10:04:14;8.32;;;7.45;;
74523;SDS011;63074;44.696;10.358;2023-08-21T10:06:42;10.50;;;7.57;;
74523;SDS011;63074;44.696;10.358;2023-08-21T10:09:11;10.93;;;7.95;;
74523;SDS011;63074;44.696;10.358;2023-08-21T10:11:39;9.15;;;7.45;;
74523;SDS011;63074;44.696;10.358;2023-08-21T10:14:05;8.85;;;7.95;;
74523;SDS011;63074;44.696;10.358;2023-08-21T10:16:33;10.70;;;7.30;;
74523;SDS011;63074;44.696;10.358;2023-08-21T10:19:02;8.35;;;7.05;;
74523;SDS011;63074;44.696;10.358;2023-08-21T10:21:34;9.15;;;7.40;;
74523;SDS011;63074;44.696;10.358;2023-08-21T10:24:04;10.05;;;7.45;;
74523;SDS011;63074;44.696;10.358;2023-08-21T10:26:31;9.68;;;8.13;;
74523;SDS011;63074;44.696;10.358;2023-08-21T10:29:05;8.82;;;7.85;;
74523;SDS011;63074;44.696;10.358;2023-08-21T10:31:40;8.93;;;8.00;;
74523;SDS011;63074;44.696;10.358;2023-08-21T10:34:12;7.90;;;6.65;;
74523;SDS011;63074;44.696;10.358;2023-08-21T10:44:35;7.57;;;6.82;;
74523;SDS011;63074;44.696;10.358;2023-08-21T10:47:20;8.63;;;7.43;;
74523;SDS011;63074;44.696;10.358;2023-08-21T10:54:51;8.40;;;7.60;;
74523;SDS011;63074;44.696;10.358;2023-08-21T10:57:19;8.38;;;7.30;;
74523;SDS011;63074;44.696;10.358;2023-08-21T10:59:57;8.10;;;6.70;;
74523;SDS011;63074;44.696;10.358;2023-08-21T11:02:25;7.30;;;6.60;;
74523;SDS011;63074;44.696;10.358;2023-08-21T11:04:55;8.77;;;7.25;;
74523;SDS011;63074;44.696;10.358;2023-08-21T11:07:22;9.52;;;7.65;;
74523;SDS011;63074;44.696;10.358;2023-08-21T11:09:49;8.63;;;7.20;;
74523;SDS011;63074;44.696;10.358;2023-08-21T11:12:17;8.93;;;7.72;;
74523;SDS011;63074;44.696;10.358;2023-08-21T11:14:45;8.43;;;7.05;;
74523;SDS011;63074;44.696;10.358;2023-08-21T11:17:11;8.27;;;7.10;;
74523;SDS011;63074;44.696;10.358;2023-08-21T11:19:38;8.27;;;7.13;;
74523;SDS011;63074;44.696;10.358;2023-08-21T11:22:06;8.50;;;7.60;;
74523;SDS011;63074;44.696;10.358;2023-08-21T11:24:42;9.27;;;7.18;;
74523;SDS011;63074;44.696;10.358;2023-08-21T11:27:11;7.90;;;7.07;;
74523;SDS011;63074;44.696;10.358;2023-08-21T11:29:40;8.55;;;7.55;;
74523;SDS011;63074;44.696;10.358;2023-08-21T11:32:11;7.43;;;6.80;;
74523;SDS011;63074;44.696;10.358;2023-08-21T11:34:39;9.13;;;7.55;;
74523;SDS011;63074;44.696;10.358;2023-08-21T11:37:07;6.97;;;6.28;;
74523;SDS011;63074;44.696;10.358;2023-08-21T11:39:43;7.20;;;6.45;;
74523;SDS011;63074;44.696;10.358;2023-08-21T11:44:59;7.82;;;6.78;;
74523;SDS011;63074;44.696;10.358;2023-08-21T11:47:33;10.43;;;7.00;;
74523;SDS011;63074;44.696;10.358;2023-08-21T11:50:06;8.35;;;7.00;;
74523;SDS011;63074;44.696;10.358;2023-08-21T11:52:38;8.25;;;6.65;;
74523;SDS011;63074;44.696;10.358;2023-08-21T11:55:10;8.13;;;7.32;;
74523;SDS011;63074;44.696;10.358;2023-08-21T11:57:49;7.15;;;6.45;;
74523;SDS011;63074;44.696;10.358;2023-08-21T12:00:17;10.63;;;6.60;;
74523;SDS011;63074;44.696;10.358;2023-08-21T12:02:53;9.32;;;6.65;;
74523;SDS011;63074;44.696;10.358;2023-08-21T12:05:23;7.25;;;6.55;;
74523;SDS011;63074;44.696;10.358;2023-08-21T12:07:49;7.82;;;6.68;;
74523;SDS011;63074;44.696;10.358;2023-08-21T12:10:25;7.88;;;7.18;;
74523;SDS011;63074;44.696;10.358;2023-08-21T12:12:52;7.28;;;6.43;;
74523;SDS011;63074;44.696;10.358;2023-08-21T12:15:19;7.40;;;6.65;;
74523;SDS011;63074;44.696;10.358;2023-08-21T12:17:45;7.40;;;6.68;;
74523;SDS011;63074;44.696;10.358;2023-08-21T12:20:11;7.53;;;6.82;;
74523;SDS011;63074;44.696;10.358;2023-08-21T12:22:38;8.65;;;6.88;;
74523;SDS011;63074;44.696;10.358;2023-08-21T12:25:07;9.90;;;6.65;;
74523;SDS011;63074;44.696;10.358;2023-08-21T12:27:35;7.40;;;6.57;;
74523;SDS011;63074;44.696;10.358;2023-08-21T12:30:02;7.82;;;6.50;;
74523;SDS011;63074;44.696;10.358;2023-08-21T12:32:29;7.47;;;6.55;;
74523;SDS011;63074;44.696;10.358;2023-08-21T12:34:55;8.15;;;6.70;;
74523;SDS011;63074;44.696;10.358;2023-08-21T12:37:21;8.30;;;6.72;;
74523;SDS011;63074;44.696;10.358;2023-08-21T12:39:47;7.15;;;5.95;;
74523;SDS011;63074;44.696;10.358;2023-08-21T12:42:14;7.78;;;6.97;;
74523;SDS011;63074;44.696;10.358;2023-08-21T12:44:40;8.57;;;7.03;;
74523;SDS011;63074;44.696;10.358;2023-08-21T12:47:06;7.93;;;7.22;;
74523;SDS011;63074;44.696;10.358;2023-08-21T12:49:32;7.90;;;7.10;;
74523;SDS011;63074;44.696;10.358;2023-08-21T12:52:00;11.00;;;7.78;;
74523;SDS011;63074;44.696;10.358;2023-08-21T12:54:26;8.40;;;7.00;;
74523;SDS011;63074;44.696;10.358;2023-08-21T12:56:52;8.80;;;7.90;;
74523;SDS011;63074;44.696;10.358;2023-08-21T12:59:19;7.97;;;7.13;;
74523;SDS011;63074;44.696;10.358;2023-08-21T13:01:45;8.20;;;7.40;;
74523;SDS011;63074;44.696;10.358;2023-08-21T13:04:11;7.28;;;6.57;;
74523;SDS011;63074;44.696;10.358;2023-08-21T13:06:37;8.02;;;7.03;;
74523;SDS011;63074;44.696;10.358;2023-08-21T13:09:03;7.93;;;7.10;;
74523;SDS011;63074;44.696;10.358;2023-08-21T13:11:30;7.97;;;7.18;;
74523;SDS011;63074;44.696;10.358;2023-08-21T13:13:56;9.95;;;7.22;;
74523;SDS011;63074;44.696;10.358;2023-08-21T13:16:23;8.07;;;7.28;;
74523;SDS011;63074;44.696;10.358;2023-08-21T13:18:49;9.00;;;6.80;;
74523;SDS011;63074;44.696;10.358;2023-08-21T13:21:15;7.38;;;6.38;;
74523;SDS011;63074;44.696;10.358;2023-08-21T13:23:41;8.95;;;7.05;;
74523;SDS011;63074;44.696;10.358;2023-08-21T13:26:07;8.30;;;6.35;;
74523;SDS011;63074;44.696;10.358;2023-08-21T13:28:34;7.20;;;6.53;;
74523;SDS011;63074;44.696;10.358;2023-08-21T13:31:00;8.13;;;7.32;;
74523;SDS011;63074;44.696;10.358;2023-08-21T13:33:26;8.75;;;7.18;;
74523;SDS011;63074;44.696;10.358;2023-08-21T13:35:53;9.05;;;7.20;;
74523;SDS011;63074;44.696;10.358;2023-08-21T13:38:19;8.73;;;7.13;;
74523;SDS011;63074;44.696;10.358;2023-08-21T13:40:45;7.57;;;6.88;;
74523;SDS011;63074;44.696;10.358;2023-08-21T13:43:11;8.18;;;7.30;;
74523;SDS011;63074;44.696;10.358;2023-08-21T13:45:37;8.65;;;7.00;;
74523;SDS011;63074;44.696;10.358;2023-08-21T13:48:05;8.20;;;7.20;;
74523;SDS011;63074;44.696;10.358;2023-08-21T13:50:31;8.13;;;6.72;;
74523;SDS011;63074;44.696;10.358;2023-08-21T13:52:57;7.97;;;7.18;;
74523;SDS011;63074;44.696;10.358;2023-08-21T13:55:23;9.23;;;7.72;;
74523;SDS011;63074;44.696;10.358;2023-08-21T13:57:50;10.73;;;7.05;;
74523;SDS011;63074;44.696;10.358;2023-08-21T14:00:16;8.68;;;7.78;;
74523;SDS011;63074;44.696;10.358;2023-08-21T14:02:43;9.00;;;7.30;;
74523;SDS011;63074;44.696;10.358;2023-08-21T14:05:09;8.82;;;6.88;;
74523;SDS011;63074;44.696;10.358;2023-08-21T14:07:36;8.40;;;7.50;;
74523;SDS011;63074;44.696;10.358;2023-08-21T14:10:03;8.00;;;7.10;;
74523;SDS011;63074;44.696;10.358;2023-08-21T14:12:33;8.10;;;7.30;;
74523;SDS011;63074;44.696;10.358;2023-08-21T14:14:59;8.05;;;7.18;;
74523;SDS011;63074;44.696;10.358;2023-08-21T14:17:26;7.47;;;6.72;;
74523;SDS011;63074;44.696;10.358;2023-08-21T14:19:52;8.82;;;7.68;;
74523;SDS011;63074;44.696;10.358;2023-08-21T14:22:19;7.55;;;6.85;;
74523;SDS011;63074;44.696;10.358;2023-08-21T14:24:45;8.15;;;7.35;;
74523;SDS011;63074;44.696;10.358;2023-08-21T14:27:11;8.00;;;7.10;;
74523;SDS011;63074;44.696;10.358;2023-08-21T14:29:38;7.97;;;7.20;;
74523;SDS011;63074;44.696;10.358;2023-08-21T14:32:04;8.02;;;6.47;;
74523;SDS011;63074;44.696;10.358;2023-08-21T14:34:30;8.73;;;7.93;;
74523;SDS011;63074;44.696;10.358;2023-08-21T14:36:56;8.13;;;6.80;;
74523;SDS011;63074;44.696;10.358;2023-08-21T14:39:23;8.48;;;7.47;;
74523;SDS011;63074;44.696;10.358;2023-08-21T14:41:53;9.98;;;7.85;;
74523;SDS011;63074;44.696;10.358;2023-08-21T14:44:20;9.60;;;7.60;;
74523;SDS011;63074;44.696;10.358;2023-08-21T14:46:46;9.95;;;8.25;;
74523;SDS011;63074;44.696;10.358;2023-08-21T14:49:13;9.00;;;8.10;;